createdAt,value
2019-02-16T00:00:38.774Z,99.90
2019-02-16T00:03:04.987Z,99.90
2019-02-16T00:05:31.215Z,99.90
2019-02-16T00:07:57.422Z,99.90
2019-02-16T00:10:23.651Z,99.90
2019-02-16T00:12:49.855Z,99.90
2019-02-16T00:15:16.183Z,99.90
2019-02-16T00:17:42.755Z,99.90
2019-02-16T00:20:09.087Z,99.90
2019-02-16T00:22:35.416Z,99.90
2019-02-16T00:25:01.660Z,99.90
2019-02-16T00:27:27.959Z,99.90
2019-02-16T00:29:54.175Z,99.90
2019-02-16T00:32:20.415Z,99.90
2019-02-16T00:34:46.635Z,99.90
2019-02-16T00:37:12.864Z,99.90
2019-02-16T00:39:39.417Z,99.90
2019-02-16T00:42:05.946Z,99.90
2019-02-16T00:44:32.156Z,99.90
2019-02-16T00:46:58.722Z,99.90
2019-02-16T00:49:24.991Z,99.90
2019-02-16T00:51:51.322Z,99.90
2019-02-16T00:54:17.530Z,99.90
2019-02-16T00:56:43.870Z,99.90
2019-02-16T00:59:10.078Z,99.90
2019-02-16T01:01:36.294Z,99.90
2019-02-16T01:04:02.607Z,99.90
2019-02-16T01:06:28.855Z,99.90
2019-02-16T01:08:55.067Z,99.90
2019-02-16T01:11:21.270Z,99.90
2019-02-16T01:13:47.502Z,99.90
2019-02-16T01:16:13.834Z,99.90
2019-02-16T01:18:40.063Z,99.90
2019-02-16T01:21:06.366Z,99.90
2019-02-16T01:23:32.663Z,99.90
2019-02-16T01:25:58.866Z,99.90
2019-02-16T01:28:25.094Z,99.90
2019-02-16T01:30:51.415Z,99.90
2019-02-16T01:33:17.643Z,99.90
2019-02-16T01:35:43.846Z,99.90
2019-02-16T01:38:10.101Z,99.90
2019-02-16T01:40:36.399Z,99.90
2019-02-16T01:43:02.764Z,99.90
2019-02-16T01:45:28.982Z,99.90
2019-02-16T01:47:55.347Z,99.90
2019-02-16T01:50:21.569Z,99.90
2019-02-16T01:52:47.777Z,99.90
2019-02-16T01:55:14.016Z,99.90
2019-02-16T01:57:40.227Z,99.90
2019-02-16T02:00:08.055Z,99.90
2019-02-16T02:02:34.262Z,99.90
2019-02-16T02:05:00.490Z,99.90
2019-02-16T02:07:26.711Z,99.90
2019-02-16T02:09:52.930Z,99.90
2019-02-16T02:12:19.139Z,99.90
2019-02-16T02:14:45.367Z,99.90
2019-02-16T02:17:11.574Z,99.90
2019-02-16T02:19:37.802Z,99.90
2019-02-16T02:22:04.016Z,99.90
2019-02-16T02:24:30.255Z,99.90
2019-02-16T02:26:56.527Z,99.90
2019-02-16T02:29:22.767Z,99.90
2019-02-16T02:31:48.980Z,99.90
2019-02-16T02:34:15.233Z,99.90
2019-02-16T02:36:41.439Z,99.90
2019-02-16T02:39:07.666Z,99.90
2019-02-16T02:41:33.880Z,99.90
2019-02-16T02:44:00.103Z,99.90
2019-02-16T02:46:26.318Z,99.90
2019-02-16T02:48:52.546Z,99.90
2019-02-16T02:51:18.754Z,99.90
2019-02-16T02:53:44.977Z,99.90
2019-02-16T02:56:11.439Z,99.90
2019-02-16T02:58:37.647Z,99.90
2019-02-16T03:01:03.866Z,99.90
2019-02-16T03:03:30.083Z,99.90
2019-02-16T03:05:56.303Z,99.90
2019-02-16T03:08:22.560Z,99.90
2019-02-16T03:10:48.786Z,99.90
2019-02-16T03:13:15.007Z,99.90
2019-02-16T03:15:41.243Z,99.90
2019-02-16T03:18:07.455Z,99.90
2019-02-16T03:20:33.966Z,99.90
2019-02-16T03:23:15.075Z,99.90
2019-02-16T03:25:44.820Z,99.90
2019-02-16T03:28:36.034Z,99.90
2019-02-16T03:31:35.287Z,99.90
2019-02-16T03:34:22.976Z,99.90
2019-02-16T03:37:16.795Z,99.90
2019-02-16T03:39:44.051Z,99.90
2019-02-16T03:42:10.542Z,99.90
2019-02-16T03:44:36.753Z,99.90
2019-02-16T03:47:03.082Z,99.90
2019-02-16T03:49:29.288Z,99.90
2019-02-16T03:51:55.514Z,99.90
2019-02-16T03:54:21.723Z,99.90
2019-02-16T03:56:48.003Z,99.90
2019-02-16T03:59:14.246Z,99.90
2019-02-16T04:01:40.450Z,99.90
2019-02-16T04:04:06.677Z,99.90
2019-02-16T04:06:32.896Z,99.90
2019-02-16T04:08:59.115Z,99.90
2019-02-16T04:11:25.350Z,99.90
2019-02-16T04:13:51.662Z,99.90
2019-02-16T04:16:17.876Z,99.90
2019-02-16T04:18:44.103Z,99.90
2019-02-16T04:21:10.307Z,99.90
2019-02-16T04:23:36.707Z,99.90
2019-02-16T04:26:04.925Z,99.90
2019-02-16T04:28:31.350Z,99.90
2019-02-16T04:30:57.545Z,99.90
2019-02-16T04:33:23.766Z,99.90
2019-02-16T04:35:50.373Z,99.90
2019-02-16T04:38:16.603Z,99.90
2019-02-16T04:40:42.803Z,99.90
2019-02-16T04:43:09.022Z,99.90
2019-02-16T04:45:35.230Z,99.90
2019-02-16T04:48:01.562Z,99.90
2019-02-16T04:50:27.771Z,99.90
2019-02-16T04:52:53.997Z,99.90
2019-02-16T04:55:20.222Z,99.90
2019-02-16T04:57:46.514Z,99.90
2019-02-16T05:00:13.323Z,99.90
2019-02-16T05:02:39.527Z,99.90
2019-02-16T05:05:05.842Z,99.90
2019-02-16T05:07:32.069Z,99.90
2019-02-16T05:09:58.647Z,99.90
2019-02-16T05:12:24.859Z,99.90
2019-02-16T05:14:51.086Z,99.90
2019-02-16T05:17:17.286Z,99.90
2019-02-16T05:19:43.516Z,99.90
2019-02-16T05:22:09.724Z,99.90
2019-02-16T05:24:36.067Z,99.90
2019-02-16T05:27:02.289Z,99.90
2019-02-16T05:29:28.510Z,99.90
2019-02-16T05:31:54.719Z,99.90
2019-02-16T05:34:20.970Z,99.90
2019-02-16T05:36:47.181Z,99.90
2019-02-16T05:39:13.407Z,99.90
2019-02-16T05:41:39.842Z,99.90
2019-02-16T05:44:06.085Z,99.90
2019-02-16T05:46:32.298Z,99.90
2019-02-16T05:48:58.518Z,99.90
2019-02-16T05:51:24.752Z,99.90
2019-02-16T05:53:50.955Z,99.90
2019-02-16T05:56:17.485Z,99.90
2019-02-16T05:58:44.014Z,99.90
2019-02-16T06:01:10.252Z,99.90
2019-02-16T06:03:36.472Z,99.90
2019-02-16T06:06:02.799Z,99.90
2019-02-16T06:08:29.343Z,99.90
2019-02-16T06:10:55.562Z,99.90
2019-02-16T06:13:21.779Z,99.90
2019-02-16T06:15:48.210Z,99.90
2019-02-16T06:18:14.730Z,99.90
2019-02-16T06:20:41.163Z,99.90
2019-02-16T06:23:07.503Z,99.90
2019-02-16T06:25:33.711Z,99.90
2019-02-16T06:27:59.958Z,99.90
2019-02-16T06:30:26.374Z,99.90
2019-02-16T06:32:52.604Z,99.90
2019-02-16T06:35:23.475Z,99.90
2019-02-16T06:37:49.700Z,99.90
2019-02-16T06:40:15.919Z,99.90
2019-02-16T06:42:42.379Z,99.90
2019-02-16T06:45:08.591Z,99.90
2019-02-16T06:47:34.822Z,99.90
2019-02-16T06:50:01.043Z,99.90
2019-02-16T06:52:27.262Z,99.90
2019-02-16T06:54:53.470Z,99.90
2019-02-16T06:57:21.607Z,99.90
2019-02-16T06:59:47.823Z,99.90
2019-02-16T07:02:14.150Z,99.90
2019-02-16T07:04:40.361Z,99.90
2019-02-16T07:07:06.562Z,99.90
2019-02-16T07:09:32.789Z,99.90
2019-02-16T07:11:59.075Z,99.90
2019-02-16T07:14:25.302Z,99.90
2019-02-16T07:16:56.271Z,99.90
2019-02-16T07:19:27.373Z,99.90
2019-02-16T07:21:53.578Z,99.90
2019-02-16T07:24:19.824Z,99.90
2019-02-16T07:26:46.303Z,99.90
2019-02-16T07:29:12.646Z,99.90
2019-02-16T07:31:38.966Z,99.90
2019-02-16T07:34:05.191Z,99.90
2019-02-16T07:36:31.732Z,99.90
2019-02-16T07:38:58.058Z,99.90
2019-02-16T07:41:24.646Z,99.90
2019-02-16T07:43:55.807Z,99.90
2019-02-16T07:46:29.706Z,99.90
2019-02-16T07:48:57.862Z,99.90
2019-02-16T07:51:25.988Z,99.90
2019-02-16T07:53:57.346Z,99.90
2019-02-16T07:56:32.057Z,99.90
2019-02-16T07:59:15.887Z,99.90
2019-02-16T08:01:49.785Z,99.90
2019-02-16T08:04:23.734Z,99.90
2019-02-16T08:06:58.234Z,99.90
2019-02-16T08:09:26.372Z,99.90
2019-02-16T08:11:54.611Z,99.90
2019-02-16T08:14:40.877Z,99.90
2019-02-16T08:17:08.990Z,99.90
2019-02-16T08:19:40.048Z,99.90
2019-02-16T08:22:11.201Z,99.90
2019-02-16T08:24:48.222Z,99.90
2019-02-16T08:27:25.403Z,99.90
2019-02-16T08:29:53.673Z,99.90
2019-02-16T08:32:31.183Z,99.90
2019-02-16T08:34:59.375Z,99.90
2019-02-16T08:37:27.611Z,99.90
2019-02-16T08:40:12.811Z,99.90
2019-02-16T08:42:46.842Z,99.90
2019-02-16T08:45:20.987Z,99.90
2019-02-16T08:47:58.705Z,99.90
2019-02-16T08:50:39.269Z,99.90
2019-02-16T08:53:07.370Z,99.90
2019-02-16T08:55:35.531Z,99.90
2019-02-16T08:58:12.675Z,99.90
2019-02-16T09:00:43.593Z,99.90
2019-02-16T09:03:14.452Z,99.90
2019-02-16T09:05:51.699Z,99.90
2019-02-16T09:08:22.671Z,99.90
2019-02-16T09:10:50.903Z,99.90
2019-02-16T09:13:19.019Z,99.90
2019-02-16T09:15:53.287Z,99.90
2019-02-16T09:18:27.175Z,99.90
2019-02-16T09:21:14.642Z,99.90
2019-02-16T09:23:59.407Z,99.90
2019-02-16T09:26:36.730Z,99.90
2019-02-16T09:29:07.584Z,99.90
2019-02-16T09:31:47.770Z,99.90
2019-02-16T09:34:22.018Z,99.90
2019-02-16T09:37:02.479Z,99.90
2019-02-16T09:39:30.706Z,99.90
2019-02-16T09:42:01.611Z,99.90
2019-02-16T09:44:32.750Z,99.90
2019-02-16T09:47:00.906Z,99.90
2019-02-16T09:49:37.782Z,99.90
2019-02-16T09:52:05.919Z,99.90
2019-02-16T09:54:39.810Z,99.90
2019-02-16T09:57:10.836Z,99.90
2019-02-16T09:59:38.942Z,99.90
2019-02-16T10:02:09.602Z,99.90
2019-02-16T10:04:37.710Z,99.90
2019-02-16T10:07:11.822Z,99.90
2019-02-16T10:09:51.354Z,99.90
2019-02-16T10:12:37.946Z,99.90
2019-02-16T10:15:08.559Z,99.90
2019-02-16T10:17:36.695Z,99.90
2019-02-16T10:20:06.018Z,99.90
2019-02-16T10:22:37.067Z,99.90
2019-02-16T10:25:05.693Z,99.90
2019-02-16T10:27:39.676Z,99.90
2019-02-16T10:30:20.164Z,99.90
2019-02-16T10:32:51.447Z,99.90
2019-02-16T10:35:36.707Z,99.90
2019-02-16T10:38:21.467Z,99.90
2019-02-16T10:40:49.577Z,99.90
2019-02-16T10:43:36.083Z,99.90
2019-02-16T10:46:04.406Z,99.90
2019-02-16T10:48:32.538Z,99.90
2019-02-16T10:51:06.438Z,99.90
2019-02-16T10:53:37.351Z,99.90
2019-02-16T10:56:05.886Z,99.90
2019-02-16T10:58:34.007Z,99.90
2019-02-16T11:01:08.141Z,99.90
2019-02-16T11:03:36.260Z,99.90
2019-02-16T11:06:10.483Z,99.90
2019-02-16T11:08:44.778Z,99.90
2019-02-16T11:11:15.895Z,99.90
2019-02-16T11:13:46.768Z,99.90
2019-02-16T11:16:31.519Z,99.90
2019-02-16T11:19:17.810Z,99.90
2019-02-16T11:22:04.368Z,99.90
2019-02-16T11:24:36.101Z,99.90
2019-02-16T11:27:19.694Z,99.90
2019-02-16T11:29:51.022Z,99.90
2019-02-16T11:32:22.103Z,99.90
2019-02-16T11:34:52.955Z,99.90
2019-02-16T11:37:33.000Z,99.90
2019-02-16T11:40:01.132Z,99.90
2019-02-16T11:42:47.834Z,99.90
2019-02-16T11:45:18.958Z,99.90
2019-02-16T11:48:05.210Z,99.90
2019-02-16T11:50:48.730Z,98.80
2019-02-16T11:53:35.115Z,99.70
2019-02-16T11:56:12.322Z,97.80
2019-02-16T11:58:58.547Z,94.10
2019-02-16T12:01:43.491Z,93.90
2019-02-16T12:04:11.612Z,95.50
2019-02-16T12:06:39.735Z,94.50
2019-02-16T12:09:25.226Z,93.80
2019-02-16T12:11:56.847Z,91.70
2019-02-16T12:14:24.984Z,92.20
2019-02-16T12:17:09.915Z,90.90
2019-02-16T12:19:54.663Z,93.10
2019-02-16T12:22:22.804Z,82.40
2019-02-16T12:25:06.019Z,90.90
2019-02-16T12:27:42.446Z,93.40
2019-02-16T12:30:13.298Z,92.40
2019-02-16T12:32:41.670Z,93.70
2019-02-16T12:35:09.787Z,93.60
2019-02-16T12:37:37.914Z,87.80
2019-02-16T12:40:22.608Z,86.80
2019-02-16T12:42:50.744Z,81.40
2019-02-16T12:45:24.681Z,78.80
2019-02-16T12:48:04.780Z,76.00
2019-02-16T12:50:32.892Z,67.80
2019-02-16T12:53:01.030Z,68.90
2019-02-16T12:55:45.839Z,65.90
2019-02-16T12:58:19.906Z,63.80
2019-02-16T13:00:48.018Z,62.60
2019-02-16T13:03:18.950Z,68.80
2019-02-16T13:05:47.395Z,65.90
2019-02-16T13:08:15.537Z,71.20
2019-02-16T13:10:49.792Z,63.60
2019-02-16T13:13:18.010Z,68.70
2019-02-16T13:15:48.853Z,83.00
2019-02-16T13:18:20.190Z,81.30
2019-02-16T13:20:51.194Z,86.70
2019-02-16T13:23:19.334Z,80.90
2019-02-16T13:25:50.442Z,76.30
2019-02-16T13:28:18.554Z,72.30
2019-02-16T13:30:49.879Z,73.80
2019-02-16T13:33:21.000Z,76.40
2019-02-16T13:35:52.113Z,69.50
2019-02-16T13:38:23.358Z,69.20
2019-02-16T13:40:57.491Z,67.60
2019-02-16T13:43:31.391Z,66.10
2019-02-16T13:46:02.491Z,69.10
2019-02-16T13:48:30.996Z,69.50
2019-02-16T13:51:08.280Z,68.80
2019-02-16T13:53:48.398Z,65.50
2019-02-16T13:56:33.095Z,63.30
2019-02-16T13:59:01.203Z,61.20
2019-02-16T14:01:35.692Z,60.70
2019-02-16T14:04:10.766Z,58.10
2019-02-16T14:06:38.896Z,56.80
2019-02-16T14:09:07.006Z,56.60
2019-02-16T14:11:44.633Z,62.70
2019-02-16T14:14:29.260Z,59.00
2019-02-16T14:17:13.922Z,56.50
2019-02-16T14:19:51.867Z,55.20
2019-02-16T14:22:18.134Z,55.20
2019-02-16T14:24:47.648Z,53.60
2019-02-16T14:27:13.934Z,52.30
2019-02-16T14:29:40.158Z,52.20
2019-02-16T14:32:06.364Z,51.30
2019-02-16T14:34:32.591Z,51.00
2019-02-16T14:36:59.603Z,51.30
2019-02-16T14:39:30.726Z,51.70
2019-02-16T14:41:56.976Z,51.60
2019-02-16T14:44:23.550Z,50.00
2019-02-16T14:46:50.035Z,47.90
2019-02-16T14:49:16.272Z,45.10
2019-02-16T14:51:42.590Z,45.60
2019-02-16T14:54:08.935Z,41.70
2019-02-16T14:56:35.138Z,38.40
2019-02-16T14:59:01.367Z,36.30
2019-02-16T15:01:27.606Z,32.60
2019-02-16T15:13:40.365Z,26.80
2019-02-16T15:16:06.582Z,27.30
2019-02-16T15:18:32.878Z,26.30
2019-02-16T15:20:59.386Z,25.80
2019-02-16T15:23:25.641Z,24.70
2019-02-16T15:26:00.479Z,24.80
2019-02-16T15:28:19.978Z,25.00
2019-02-16T15:30:46.190Z,25.40
2019-02-16T15:33:12.483Z,27.20
2019-02-16T15:35:38.699Z,27.50
2019-02-16T15:38:05.003Z,27.90
2019-02-16T15:40:31.261Z,28.10
2019-02-16T15:42:57.579Z,28.40
2019-02-16T15:45:23.881Z,28.40
2019-02-16T15:47:50.090Z,28.80
2019-02-16T15:50:16.310Z,28.80
2019-02-16T15:52:42.690Z,28.90
2019-02-16T15:55:10.522Z,28.50
2019-02-16T15:57:36.795Z,28.70
2019-02-16T16:00:08.064Z,29.40
2019-02-16T16:02:34.371Z,29.70
2019-02-16T16:05:00.613Z,30.20
2019-02-16T16:07:26.930Z,31.10
2019-02-16T16:10:00.794Z,32.40
2019-02-16T16:12:32.362Z,33.70
2019-02-16T16:15:03.457Z,35.80
2019-02-16T16:17:43.723Z,37.70
2019-02-16T16:20:11.831Z,44.00
2019-02-16T16:22:40.078Z,50.40
2019-02-16T16:25:08.479Z,57.50
2019-02-16T16:27:39.514Z,67.10
2019-02-16T16:30:11.109Z,85.80
2019-02-16T16:32:41.966Z,92.80
2019-02-16T16:35:27.027Z,97.30
2019-02-16T16:37:55.304Z,98.60
2019-02-16T16:40:29.542Z,99.90
2019-02-16T16:43:01.191Z,99.90
2019-02-16T16:45:47.399Z,99.90
2019-02-16T16:48:15.535Z,99.90
2019-02-16T16:50:46.487Z,99.90
2019-02-16T16:53:17.470Z,99.90
2019-02-16T16:55:45.583Z,99.90
2019-02-16T16:58:30.387Z,99.90
2019-02-16T17:01:15.155Z,99.90
2019-02-16T17:03:59.872Z,99.90
2019-02-16T17:06:28.035Z,99.90
2019-02-16T17:08:59.043Z,99.90
2019-02-16T17:11:39.174Z,99.90
2019-02-16T17:14:13.275Z,99.90
2019-02-16T17:16:41.475Z,99.90
2019-02-16T17:19:21.855Z,99.90
2019-02-16T17:21:52.998Z,99.90
2019-02-16T17:24:27.590Z,99.90
2019-02-16T17:27:01.918Z,99.90
2019-02-16T17:29:30.059Z,99.90
2019-02-16T17:32:10.349Z,99.90
2019-02-16T17:34:38.477Z,99.90
2019-02-16T17:37:18.918Z,99.90
2019-02-16T17:40:03.642Z,99.90
2019-02-16T17:42:37.582Z,99.90
2019-02-16T17:45:24.316Z,99.90
2019-02-16T17:47:58.260Z,99.90
2019-02-16T17:50:32.309Z,99.90
2019-02-16T17:53:03.639Z,99.90
2019-02-16T17:55:31.931Z,99.90
2019-02-16T17:58:18.418Z,99.90
2019-02-16T18:01:04.651Z,99.90
2019-02-16T18:03:41.599Z,99.90
2019-02-16T18:06:15.486Z,99.90
2019-02-16T18:08:52.430Z,99.90
2019-02-16T18:11:35.634Z,99.90
2019-02-16T18:14:18.886Z,99.90
2019-02-16T18:17:02.172Z,99.90
2019-02-16T18:19:30.281Z,99.90
2019-02-16T18:22:10.581Z,99.90
2019-02-16T18:24:38.769Z,99.90
2019-02-16T18:27:06.966Z,99.90
2019-02-16T18:29:47.371Z,99.90
2019-02-16T18:32:18.199Z,99.90
2019-02-16T18:34:46.327Z,99.90
2019-02-16T18:37:14.454Z,99.90
2019-02-16T18:39:54.763Z,99.90
2019-02-16T18:42:25.737Z,99.90
2019-02-16T18:45:02.925Z,99.90
2019-02-16T18:47:37.014Z,99.90
2019-02-16T18:50:05.654Z,99.90
2019-02-16T18:52:34.152Z,99.90
2019-02-16T18:55:11.054Z,99.90
2019-02-16T18:57:44.201Z,99.90
2019-02-16T19:00:12.486Z,99.90
2019-02-16T19:02:49.801Z,99.90
2019-02-16T19:05:27.290Z,99.90
2019-02-16T19:07:55.408Z,99.90
2019-02-16T19:10:23.623Z,99.90
2019-02-16T19:12:57.613Z,99.90
2019-02-16T19:15:25.797Z,99.90
2019-02-16T19:18:00.183Z,99.90
2019-02-16T19:20:28.302Z,99.90
2019-02-16T19:23:02.210Z,99.90
2019-02-16T19:25:42.722Z,99.90
2019-02-16T19:28:23.242Z,99.90
2019-02-16T19:30:51.366Z,99.90
2019-02-16T19:33:22.279Z,99.90
2019-02-16T19:35:53.415Z,99.90
2019-02-16T19:38:21.519Z,99.90
2019-02-16T19:40:49.639Z,99.90
2019-02-16T19:43:30.095Z,99.90
2019-02-16T19:46:07.246Z,99.90
2019-02-16T19:48:44.498Z,99.90
2019-02-16T19:51:29.242Z,99.90
2019-02-16T19:54:14.083Z,99.90
2019-02-16T19:56:51.555Z,99.90
2019-02-16T19:59:22.626Z,99.90
2019-02-16T20:01:53.538Z,99.90
2019-02-16T20:04:24.434Z,99.90
2019-02-16T20:07:04.703Z,99.90
2019-02-16T20:09:32.819Z,99.90
2019-02-16T20:12:00.931Z,99.90
2019-02-16T20:14:29.073Z,99.90
2019-02-16T20:17:00.190Z,99.90
2019-02-16T20:19:40.345Z,99.90
2019-02-16T20:22:14.533Z,99.90
2019-02-16T20:24:59.254Z,99.90
2019-02-16T20:27:44.266Z,99.90
2019-02-16T20:30:18.292Z,99.90
2019-02-16T20:32:49.182Z,99.90
2019-02-16T20:35:20.107Z,99.90
2019-02-16T20:37:54.546Z,99.90
2019-02-16T20:40:22.649Z,99.90
2019-02-16T20:42:56.878Z,99.90
2019-02-16T20:45:30.999Z,99.90
2019-02-16T20:48:02.035Z,99.90
2019-02-16T20:50:30.160Z,99.90
2019-02-16T20:53:15.347Z,99.90
2019-02-16T20:56:00.077Z,99.90
2019-02-16T20:58:46.362Z,99.90
2019-02-16T21:01:26.815Z,99.90
2019-02-16T21:04:04.170Z,99.90
2019-02-16T21:06:44.197Z,99.90
2019-02-16T21:09:24.650Z,99.90
2019-02-16T21:11:58.506Z,99.90
2019-02-16T21:14:45.002Z,99.90
2019-02-16T21:17:25.262Z,99.90
2019-02-16T21:19:53.382Z,99.90
2019-02-16T21:22:24.082Z,99.90
2019-02-16T21:24:52.205Z,99.90
2019-02-16T21:27:26.562Z,99.90
2019-02-16T21:29:54.733Z,99.90
2019-02-16T21:32:25.851Z,99.90
2019-02-16T21:34:57.159Z,99.90
2019-02-16T21:37:34.230Z,99.90
2019-02-16T21:40:08.658Z,99.90
2019-02-16T21:42:36.770Z,99.90
2019-02-16T21:45:06.102Z,99.90
2019-02-16T21:47:34.220Z,99.90
2019-02-16T21:50:17.626Z,99.90
2019-02-16T21:52:51.926Z,99.90
2019-02-16T21:55:23.094Z,99.90
2019-02-16T21:57:51.244Z,99.90
2019-02-16T22:00:38.044Z,99.90
2019-02-16T22:03:06.303Z,99.90
2019-02-16T22:05:46.570Z,99.90
2019-02-16T22:08:23.820Z,99.90
2019-02-16T22:10:52.275Z,99.90
2019-02-16T22:13:18.490Z,99.90
2019-02-16T22:15:44.721Z,99.90
2019-02-16T22:18:10.937Z,99.90
2019-02-16T22:20:37.238Z,99.90
2019-02-16T22:23:03.651Z,99.90
2019-02-16T22:25:30.358Z,99.90
2019-02-16T22:27:56.570Z,99.90
2019-02-16T22:30:22.822Z,99.90
2019-02-16T22:32:49.041Z,99.90
2019-02-16T22:35:15.267Z,99.90
2019-02-16T22:37:41.486Z,99.90
2019-02-16T22:40:07.994Z,99.90
2019-02-16T22:42:34.318Z,99.90
2019-02-16T22:45:00.530Z,99.90
2019-02-16T22:47:26.759Z,99.90
2019-02-16T22:49:52.969Z,99.90
2019-02-16T22:52:19.226Z,99.90
2019-02-16T22:54:45.429Z,99.90
2019-02-16T22:57:11.886Z,99.90
2019-02-16T22:59:38.110Z,99.90
2019-02-16T23:02:04.719Z,99.90
2019-02-16T23:04:30.947Z,99.90
2019-02-16T23:06:57.254Z,99.90
2019-02-16T23:09:27.367Z,99.90
2019-02-16T23:11:53.674Z,99.90
2019-02-16T23:14:19.898Z,99.90
2019-02-16T23:16:46.093Z,99.90
2019-02-16T23:19:12.322Z,99.90
2019-02-16T23:21:38.536Z,99.90
2019-02-16T23:24:05.050Z,99.90
2019-02-16T23:26:31.254Z,99.90
2019-02-16T23:28:57.498Z,99.90
2019-02-16T23:31:23.714Z,99.90
2019-02-16T23:33:49.943Z,99.90
2019-02-16T23:36:16.144Z,99.90
2019-02-16T23:38:42.598Z,99.90
2019-02-16T23:41:08.798Z,99.90
2019-02-16T23:43:34.998Z,99.90
2019-02-16T23:46:02.325Z,99.90
2019-02-16T23:48:28.548Z,99.90
2019-02-16T23:50:54.775Z,99.90
2019-02-16T23:53:20.985Z,99.90
2019-02-16T23:55:47.428Z,99.90
2019-02-16T23:58:13.775Z,99.90
